createdAt,value
2022-12-06T00:01:51.634Z,100.00
2022-12-06T00:04:19.971Z,100.00
2022-12-06T00:06:51.739Z,100.00
2022-12-06T00:09:21.730Z,100.00
2022-12-06T00:11:50.093Z,100.00
2022-12-06T00:14:19.213Z,100.00
2022-12-06T00:16:47.923Z,100.00
2022-12-06T00:19:18.335Z,100.00
2022-12-06T00:21:47.331Z,100.00
2022-12-06T00:24:19.358Z,100.00
2022-12-06T00:26:49.484Z,100.00
2022-12-06T00:29:19.723Z,100.00
2022-12-06T00:31:48.341Z,100.00
2022-12-06T00:34:16.716Z,100.00
2022-12-06T00:36:45.533Z,100.00
2022-12-06T00:39:15.735Z,100.00
2022-12-06T00:41:46.053Z,100.00
2022-12-06T00:44:14.621Z,100.00
2022-12-06T00:46:42.711Z,100.00
2022-12-06T00:49:11.302Z,100.00
2022-12-06T00:51:40.490Z,100.00
2022-12-06T00:54:09.549Z,100.00
2022-12-06T00:56:38.011Z,100.00
2022-12-06T00:59:57.970Z,100.00
2022-12-06T01:02:27.795Z,100.00
2022-12-06T01:04:56.178Z,100.00
2022-12-06T01:07:24.286Z,100.00
2022-12-06T01:09:54.247Z,100.00
2022-12-06T01:12:22.400Z,100.00
2022-12-06T01:14:50.504Z,100.00
2022-12-06T01:17:18.743Z,100.00
2022-12-06T01:19:48.137Z,100.00
2022-12-06T01:22:16.212Z,100.00
2022-12-06T01:24:44.355Z,100.00
2022-12-06T01:27:12.482Z,100.00
2022-12-06T01:29:40.511Z,100.00
2022-12-06T01:32:08.684Z,100.00
2022-12-06T01:34:37.000Z,100.00
2022-12-06T01:37:06.870Z,100.00
2022-12-06T01:39:34.971Z,100.00
2022-12-06T01:42:03.124Z,100.00
2022-12-06T01:44:44.283Z,100.00
2022-12-06T01:47:16.094Z,100.00
2022-12-06T01:49:48.326Z,100.00
2022-12-06T01:52:19.211Z,100.00
2022-12-06T01:59:20.050Z,100.00
2022-12-06T02:01:48.987Z,100.00
2022-12-06T02:04:18.236Z,100.00
2022-12-06T02:06:47.672Z,100.00
2022-12-06T02:09:18.603Z,100.00
2022-12-06T02:11:47.400Z,100.00
2022-12-06T02:14:19.235Z,100.00
2022-12-06T02:21:04.677Z,100.00
2022-12-06T02:23:56.006Z,100.00
2022-12-06T02:26:33.650Z,100.00
2022-12-06T02:29:37.572Z,100.00
2022-12-06T02:32:35.213Z,100.00
2022-12-06T02:35:12.546Z,100.00
2022-12-06T02:37:48.590Z,100.00
2022-12-06T02:40:22.026Z,100.00
2022-12-06T02:42:54.759Z,100.00
2022-12-06T02:45:28.556Z,100.00
2022-12-06T02:48:01.911Z,100.00
2022-12-06T02:50:33.202Z,100.00
2022-12-06T02:53:03.939Z,100.00
2022-12-06T02:55:33.169Z,100.00
2022-12-06T02:58:01.356Z,100.00
2022-12-06T03:00:36.604Z,100.00
2022-12-06T03:03:33.857Z,100.00
2022-12-06T03:06:21.336Z,100.00
2022-12-06T03:09:04.699Z,100.00
2022-12-06T03:11:41.560Z,100.00
2022-12-06T03:14:15.238Z,100.00
2022-12-06T03:16:48.640Z,100.00
2022-12-06T03:19:21.618Z,100.00
2022-12-06T03:21:55.542Z,100.00
2022-12-06T03:24:25.694Z,100.00
2022-12-06T03:26:57.184Z,100.00
2022-12-06T03:29:27.586Z,100.00
2022-12-06T03:31:58.576Z,100.00
2022-12-06T03:34:31.974Z,100.00
2022-12-06T03:37:22.321Z,100.00
2022-12-06T03:40:01.219Z,100.00
2022-12-06T03:42:30.365Z,100.00
2022-12-06T03:44:59.034Z,100.00
2022-12-06T03:47:35.197Z,100.00
2022-12-06T03:50:07.913Z,100.00
2022-12-06T03:52:35.932Z,100.00
2022-12-06T03:55:04.392Z,100.00
2022-12-06T03:57:32.502Z,100.00
2022-12-06T04:00:00.911Z,100.00
2022-12-06T04:03:42.785Z,100.00
2022-12-06T04:06:12.690Z,100.00
2022-12-06T04:08:40.768Z,100.00
2022-12-06T04:11:08.888Z,100.00
2022-12-06T04:13:36.902Z,100.00
2022-12-06T04:16:27.050Z,100.00
2022-12-06T04:18:54.458Z,100.00
2022-12-06T04:21:41.584Z,100.00
2022-12-06T04:24:09.639Z,100.00
2022-12-06T04:26:37.748Z,100.00
2022-12-06T04:29:23.194Z,100.00
2022-12-06T04:32:08.927Z,100.00
2022-12-06T04:34:54.277Z,100.00
2022-12-06T04:37:41.153Z,100.00
2022-12-06T04:40:10.113Z,100.00
2022-12-06T04:42:55.752Z,100.00
2022-12-06T04:45:24.000Z,100.00
2022-12-06T04:47:52.110Z,100.00
2022-12-06T04:50:20.163Z,100.00
2022-12-06T04:52:49.785Z,100.00
2022-12-06T04:55:18.014Z,100.00
2022-12-06T04:57:46.049Z,100.00
2022-12-06T05:00:15.173Z,100.00
2022-12-06T05:02:43.219Z,100.00
2022-12-06T05:05:11.245Z,100.00
2022-12-06T05:07:39.302Z,100.00
2022-12-06T05:10:09.884Z,100.00
2022-12-06T05:12:37.973Z,100.00
2022-12-06T05:15:06.424Z,100.00
2022-12-06T05:17:34.519Z,100.00
2022-12-06T05:20:02.742Z,100.00
2022-12-06T05:22:33.707Z,100.00
2022-12-06T05:25:01.810Z,100.00
2022-12-06T05:27:35.753Z,100.00
2022-12-06T05:30:05.069Z,100.00
2022-12-06T05:32:33.154Z,100.00
2022-12-06T05:35:01.134Z,100.00
2022-12-06T05:37:29.432Z,100.00
2022-12-06T05:39:57.806Z,100.00
2022-12-06T05:42:26.401Z,100.00
2022-12-06T05:44:55.831Z,100.00
2022-12-06T05:47:23.893Z,100.00
2022-12-06T05:49:52.653Z,100.00
2022-12-06T05:52:20.840Z,100.00
2022-12-06T05:54:48.865Z,100.00
2022-12-06T05:57:17.036Z,100.00
2022-12-06T05:59:45.117Z,100.00
2022-12-06T06:02:14.704Z,100.00
2022-12-06T06:04:42.804Z,100.00
2022-12-06T06:07:11.030Z,100.00
2022-12-06T06:09:39.103Z,100.00
2022-12-06T06:12:12.288Z,100.00
2022-12-06T06:14:40.956Z,100.00
2022-12-06T06:17:09.025Z,100.00
2022-12-06T06:19:38.855Z,100.00
2022-12-06T06:22:06.930Z,100.00
2022-12-06T06:24:36.859Z,100.00
2022-12-06T06:27:05.185Z,100.00
2022-12-06T06:29:33.543Z,100.00
2022-12-06T06:32:01.810Z,100.00
2022-12-06T06:34:29.995Z,100.00
2022-12-06T06:36:59.433Z,100.00
2022-12-06T06:39:27.521Z,100.00
2022-12-06T06:41:55.680Z,100.00
2022-12-06T06:44:23.749Z,100.00
2022-12-06T06:46:51.756Z,100.00
2022-12-06T06:49:19.872Z,100.00
2022-12-06T06:51:48.144Z,100.00
2022-12-06T06:54:18.348Z,100.00
2022-12-06T06:56:46.520Z,100.00
2022-12-06T06:59:14.647Z,100.00
2022-12-06T07:01:42.776Z,100.00
2022-12-06T07:04:10.980Z,100.00
2022-12-06T07:06:39.176Z,100.00
2022-12-06T07:09:07.261Z,100.00
2022-12-06T07:11:36.848Z,100.00
2022-12-06T07:14:06.632Z,100.00
2022-12-06T07:16:34.784Z,100.00
2022-12-06T07:19:07.668Z,100.00
2022-12-06T07:21:37.359Z,100.00
2022-12-06T07:24:05.596Z,100.00
2022-12-06T07:26:35.037Z,100.00
2022-12-06T07:29:04.848Z,100.00
2022-12-06T07:31:33.886Z,100.00
2022-12-06T07:34:03.570Z,100.00
2022-12-06T07:36:33.331Z,100.00
2022-12-06T07:39:01.730Z,100.00
2022-12-06T07:41:48.356Z,100.00
2022-12-06T07:45:01.935Z,100.00
2022-12-06T07:47:36.579Z,100.00
2022-12-06T07:50:06.541Z,100.00
2022-12-06T07:52:36.328Z,100.00
2022-12-06T07:55:06.424Z,100.00
2022-12-06T07:57:39.985Z,100.00
2022-12-06T08:00:15.568Z,100.00
2022-12-06T08:02:44.101Z,100.00
2022-12-06T08:05:12.832Z,100.00
2022-12-06T08:07:41.364Z,100.00
2022-12-06T08:10:10.146Z,100.00
2022-12-06T08:12:38.204Z,100.00
2022-12-06T08:15:12.867Z,100.00
2022-12-06T08:17:42.648Z,100.00
2022-12-06T08:20:12.397Z,100.00
2022-12-06T08:22:40.551Z,100.00
2022-12-06T08:25:09.826Z,100.00
2022-12-06T08:27:38.025Z,100.00
2022-12-06T08:30:07.684Z,100.00
2022-12-06T08:32:36.060Z,100.00
2022-12-06T08:35:07.574Z,100.00
2022-12-06T08:37:35.885Z,100.00
2022-12-06T08:40:04.273Z,100.00
2022-12-06T08:42:32.372Z,100.00
2022-12-06T08:45:00.531Z,100.00
2022-12-06T08:47:28.540Z,100.00
2022-12-06T08:49:58.724Z,100.00
2022-12-06T08:52:28.408Z,100.00
2022-12-06T08:54:56.631Z,100.00
2022-12-06T08:57:24.793Z,100.00
2022-12-06T08:59:52.906Z,100.00
2022-12-06T09:02:21.052Z,100.00
2022-12-06T09:04:51.882Z,100.00
2022-12-06T09:07:20.675Z,100.00
2022-12-06T09:09:50.167Z,100.00
2022-12-06T09:12:18.640Z,100.00
2022-12-06T09:14:47.236Z,100.00
2022-12-06T09:17:15.619Z,100.00
2022-12-06T09:19:44.088Z,100.00
2022-12-06T09:22:12.157Z,100.00
2022-12-06T09:24:40.244Z,100.00
2022-12-06T09:27:09.691Z,100.00
2022-12-06T09:29:40.713Z,100.00
2022-12-06T09:32:09.308Z,100.00
2022-12-06T09:34:37.461Z,100.00
2022-12-06T09:37:09.295Z,100.00
2022-12-06T09:39:42.601Z,100.00
2022-12-06T09:42:37.000Z,100.00
2022-12-06T09:45:20.588Z,100.00
2022-12-06T09:48:06.440Z,100.00
2022-12-06T09:50:47.803Z,100.00
2022-12-06T09:53:23.851Z,100.00
2022-12-06T09:56:03.974Z,100.00
2022-12-06T09:58:50.545Z,100.00
2022-12-06T10:01:25.447Z,100.00
2022-12-06T10:04:04.968Z,100.00
2022-12-06T10:06:41.466Z,100.00
2022-12-06T10:09:29.742Z,100.00
2022-12-06T10:12:21.958Z,100.00
2022-12-06T10:15:16.812Z,100.00
2022-12-06T10:17:56.525Z,100.00
2022-12-06T10:20:35.110Z,100.00
2022-12-06T10:23:18.704Z,100.00
2022-12-06T10:26:02.179Z,100.00
2022-12-06T10:28:42.698Z,100.00
2022-12-06T10:31:23.133Z,100.00
2022-12-06T10:33:57.620Z,100.00
2022-12-06T10:36:41.929Z,100.00
2022-12-06T10:39:16.993Z,100.00
2022-12-06T10:41:52.726Z,100.00
2022-12-06T10:44:26.663Z,100.00
2022-12-06T10:47:06.685Z,100.00
2022-12-06T10:49:45.581Z,100.00
2022-12-06T10:52:24.413Z,100.00
2022-12-06T10:55:00.242Z,100.00
2022-12-06T10:57:33.803Z,100.00
2022-12-06T11:00:11.804Z,100.00
2022-12-06T11:02:52.110Z,100.00
2022-12-06T11:05:27.368Z,100.00
2022-12-06T11:08:02.847Z,100.00
2022-12-06T11:10:35.111Z,100.00
2022-12-06T11:13:16.397Z,100.00
2022-12-06T11:15:51.773Z,100.00
2022-12-06T11:18:21.975Z,100.00
2022-12-06T11:20:58.752Z,100.00
2022-12-06T11:23:35.192Z,100.00
2022-12-06T11:26:12.740Z,100.00
2022-12-06T11:28:44.283Z,100.00
2022-12-06T11:31:25.592Z,100.00
2022-12-06T11:33:55.599Z,100.00
2022-12-06T11:36:25.738Z,100.00
2022-12-06T11:38:54.305Z,100.00
2022-12-06T11:41:25.115Z,100.00
2022-12-06T11:43:55.335Z,100.00
2022-12-06T11:46:25.109Z,100.00
2022-12-06T11:48:55.585Z,100.00
2022-12-06T11:51:26.476Z,100.00
2022-12-06T11:54:06.758Z,100.00
2022-12-06T11:56:38.165Z,100.00
2022-12-06T11:59:25.822Z,100.00
2022-12-06T12:01:56.214Z,100.00
2022-12-06T12:04:31.414Z,100.00
2022-12-06T12:07:01.946Z,100.00
2022-12-06T12:09:34.059Z,100.00
2022-12-06T12:12:06.056Z,100.00
2022-12-06T12:14:39.696Z,100.00
2022-12-06T12:17:18.393Z,100.00
2022-12-06T12:19:52.784Z,100.00
2022-12-06T12:22:26.312Z,100.00
2022-12-06T12:25:24.155Z,100.00
2022-12-06T12:27:47.571Z,100.00
2022-12-06T12:30:40.616Z,100.00
2022-12-06T12:33:22.712Z,100.00
2022-12-06T12:35:55.531Z,100.00
2022-12-06T12:38:28.500Z,100.00
2022-12-06T12:40:59.540Z,100.00
2022-12-06T12:43:31.539Z,100.00
2022-12-06T12:46:06.768Z,100.00
2022-12-06T12:48:35.902Z,100.00
2022-12-06T12:51:08.613Z,100.00
2022-12-06T12:53:44.954Z,100.00
2022-12-06T12:56:15.926Z,100.00
2022-12-06T12:58:45.128Z,100.00
2022-12-06T13:01:26.960Z,100.00
2022-12-06T13:03:58.552Z,100.00
2022-12-06T13:06:33.242Z,99.63
2022-12-06T13:09:05.329Z,100.00
2022-12-06T13:11:42.940Z,99.77
2022-12-06T13:14:19.168Z,99.75
2022-12-06T13:16:50.418Z,100.00
2022-12-06T13:19:21.485Z,100.00
2022-12-06T13:21:52.284Z,97.69
2022-12-06T13:24:26.301Z,99.33
2022-12-06T13:26:58.887Z,99.26
2022-12-06T13:29:33.817Z,97.34
2022-12-06T13:32:07.099Z,95.48
2022-12-06T13:34:38.594Z,95.78
2022-12-06T13:37:29.574Z,95.86
2022-12-06T13:39:58.408Z,96.59
2022-12-06T13:42:46.618Z,96.01
2022-12-06T13:45:40.768Z,96.31
2022-12-06T13:48:40.040Z,96.60
2022-12-06T13:51:13.733Z,97.40
2022-12-06T13:54:18.916Z,96.68
2022-12-06T13:56:48.442Z,96.44
2022-12-06T13:59:36.223Z,96.45
2022-12-06T14:02:44.018Z,97.74
2022-12-06T14:08:17.786Z,97.09
2022-12-06T14:10:46.557Z,98.25
2022-12-06T14:13:21.607Z,98.50
2022-12-06T14:15:52.257Z,98.13
2022-12-06T14:18:22.812Z,98.11
2022-12-06T14:20:54.122Z,99.92
2022-12-06T14:23:25.321Z,98.62
2022-12-06T14:25:53.365Z,100.00
2022-12-06T14:28:22.868Z,100.00
2022-12-06T14:30:51.270Z,100.00
2022-12-06T14:33:23.152Z,99.37
2022-12-06T14:35:53.171Z,99.23
2022-12-06T14:38:24.347Z,99.92
2022-12-06T14:41:10.386Z,100.00
2022-12-06T14:43:42.269Z,100.00
2022-12-06T14:46:13.863Z,100.00
2022-12-06T14:49:11.582Z,100.00
2022-12-06T14:51:41.790Z,100.00
2022-12-06T14:54:20.669Z,100.00
2022-12-06T14:56:48.846Z,100.00
2022-12-06T14:59:45.111Z,100.00
2022-12-06T15:02:22.969Z,100.00
2022-12-06T15:04:51.261Z,100.00
2022-12-06T15:07:34.479Z,100.00
2022-12-06T15:10:11.695Z,100.00
2022-12-06T15:12:58.135Z,100.00
2022-12-06T15:15:35.786Z,100.00
2022-12-06T15:18:06.701Z,100.00
2022-12-06T15:20:34.799Z,100.00
2022-12-06T15:23:02.824Z,100.00
2022-12-06T15:25:30.849Z,100.00
2022-12-06T15:27:58.898Z,100.00
2022-12-06T15:30:26.979Z,100.00
2022-12-06T15:32:56.617Z,100.00
2022-12-06T15:35:24.619Z,100.00
2022-12-06T15:37:52.681Z,100.00
2022-12-06T15:40:20.789Z,100.00
2022-12-06T15:42:48.829Z,100.00
2022-12-06T15:45:17.250Z,100.00
2022-12-06T15:47:45.273Z,100.00
2022-12-06T15:50:16.070Z,100.00
2022-12-06T15:52:44.057Z,100.00
2022-12-06T15:55:17.616Z,100.00
2022-12-06T15:57:45.811Z,100.00
2022-12-06T16:00:14.415Z,100.00
2022-12-06T16:02:42.491Z,100.00
2022-12-06T16:05:17.243Z,100.00
2022-12-06T16:07:45.436Z,100.00
2022-12-06T16:10:16.636Z,100.00
2022-12-06T16:13:06.143Z,100.00
2022-12-06T16:15:34.164Z,100.00
2022-12-06T16:18:02.181Z,100.00
2022-12-06T16:20:35.159Z,100.00
2022-12-06T16:23:22.846Z,100.00
2022-12-06T16:25:51.241Z,100.00
2022-12-06T16:28:19.272Z,100.00
2022-12-06T16:30:47.291Z,100.00
2022-12-06T16:33:17.952Z,100.00
2022-12-06T16:35:48.555Z,100.00
2022-12-06T16:38:18.210Z,100.00
2022-12-06T16:40:47.362Z,100.00
2022-12-06T16:43:15.684Z,100.00
2022-12-06T16:45:46.257Z,100.00
2022-12-06T16:48:17.973Z,100.00
2022-12-06T16:50:48.425Z,100.00
2022-12-06T16:53:16.922Z,100.00
2022-12-06T16:55:45.454Z,100.00
2022-12-06T16:58:13.894Z,100.00
2022-12-06T17:00:42.124Z,100.00
2022-12-06T17:03:11.466Z,100.00
2022-12-06T17:05:39.568Z,100.00
2022-12-06T17:08:09.129Z,100.00
2022-12-06T17:10:39.850Z,100.00
2022-12-06T17:13:07.914Z,100.00
2022-12-06T17:15:36.049Z,100.00
2022-12-06T17:18:04.203Z,100.00
2022-12-06T17:20:32.653Z,100.00
2022-12-06T17:23:00.754Z,100.00
2022-12-06T17:25:30.225Z,100.00
2022-12-06T17:27:58.349Z,100.00
2022-12-06T17:30:26.410Z,100.00
2022-12-06T17:32:54.519Z,100.00
2022-12-06T17:35:22.541Z,100.00
2022-12-06T17:37:52.717Z,100.00
2022-12-06T17:40:20.865Z,100.00
2022-12-06T17:43:01.370Z,100.00
2022-12-06T17:45:29.467Z,100.00
2022-12-06T17:47:57.541Z,100.00
2022-12-06T17:50:25.560Z,100.00
2022-12-06T17:52:53.563Z,100.00
2022-12-06T17:55:21.608Z,100.00
2022-12-06T17:57:51.107Z,100.00
2022-12-06T18:00:19.800Z,100.00
2022-12-06T18:02:48.880Z,100.00
2022-12-06T18:05:17.272Z,100.00
2022-12-06T18:07:45.252Z,100.00
2022-12-06T18:10:13.344Z,100.00
2022-12-06T18:12:41.392Z,100.00
2022-12-06T18:15:33.154Z,100.00
2022-12-06T18:18:01.206Z,100.00
2022-12-06T18:20:29.220Z,100.00
2022-12-06T18:22:57.337Z,100.00
2022-12-06T18:25:25.399Z,100.00
2022-12-06T18:27:53.448Z,100.00
2022-12-06T18:30:22.846Z,100.00
2022-12-06T18:32:50.854Z,100.00
2022-12-06T18:35:19.187Z,100.00
2022-12-06T18:37:47.231Z,100.00
2022-12-06T18:40:15.361Z,100.00
2022-12-06T18:42:43.346Z,100.00
2022-12-06T18:45:12.073Z,100.00
2022-12-06T18:47:41.546Z,100.00
2022-12-06T18:50:10.490Z,100.00
2022-12-06T18:52:40.395Z,100.00
2022-12-06T18:55:09.526Z,100.00
2022-12-06T18:57:38.091Z,100.00
2022-12-06T19:00:07.857Z,100.00
2022-12-06T19:02:35.997Z,100.00
2022-12-06T19:05:12.325Z,100.00
2022-12-06T19:07:40.544Z,100.00
2022-12-06T19:10:09.905Z,100.00
2022-12-06T19:12:38.010Z,100.00
2022-12-06T19:15:07.144Z,100.00
2022-12-06T19:17:35.201Z,100.00
2022-12-06T19:20:03.444Z,100.00
2022-12-06T19:22:34.999Z,100.00
2022-12-06T19:25:03.810Z,100.00
2022-12-06T19:27:31.835Z,100.00
2022-12-06T19:30:00.175Z,100.00
2022-12-06T19:32:28.403Z,100.00
2022-12-06T19:34:56.953Z,100.00
2022-12-06T19:37:25.051Z,100.00
2022-12-06T19:39:54.495Z,100.00
2022-12-06T19:42:40.191Z,100.00
2022-12-06T19:45:09.441Z,100.00
2022-12-06T19:47:37.435Z,100.00
2022-12-06T19:50:06.434Z,100.00
2022-12-06T19:52:34.462Z,100.00
2022-12-06T19:55:04.086Z,100.00
2022-12-06T19:57:32.152Z,100.00
2022-12-06T20:00:00.594Z,100.00
2022-12-06T20:02:29.004Z,100.00
2022-12-06T20:04:57.105Z,100.00
2022-12-06T20:07:25.148Z,100.00
2022-12-06T20:09:53.221Z,100.00
2022-12-06T20:12:22.553Z,100.00
2022-12-06T20:14:51.864Z,100.00
2022-12-06T20:17:21.977Z,100.00
2022-12-06T20:19:50.101Z,100.00
2022-12-06T20:22:22.120Z,100.00
2022-12-06T20:24:50.131Z,100.00
2022-12-06T20:27:18.209Z,100.00
2022-12-06T20:29:48.583Z,100.00
2022-12-06T20:32:16.703Z,100.00
2022-12-06T20:35:09.547Z,100.00
2022-12-06T20:37:37.546Z,100.00
2022-12-06T20:41:19.274Z,100.00
2022-12-06T20:43:48.628Z,100.00
2022-12-06T20:46:20.488Z,100.00
2022-12-06T20:48:48.543Z,100.00
2022-12-06T20:51:19.317Z,100.00
2022-12-06T20:53:48.365Z,100.00
2022-12-06T20:56:19.106Z,100.00
2022-12-06T20:58:48.573Z,100.00
2022-12-06T21:01:20.136Z,100.00
2022-12-06T21:03:48.887Z,100.00
2022-12-06T21:06:17.337Z,100.00
2022-12-06T21:08:46.752Z,100.00
2022-12-06T21:11:24.002Z,100.00
2022-12-06T21:13:53.444Z,100.00
2022-12-06T21:16:26.456Z,100.00
2022-12-06T21:18:59.160Z,100.00
2022-12-06T21:21:30.413Z,100.00
2022-12-06T21:23:59.991Z,100.00
2022-12-06T21:26:28.250Z,100.00
2022-12-06T21:28:56.772Z,100.00
2022-12-06T21:31:29.056Z,100.00
2022-12-06T21:33:57.311Z,100.00
2022-12-06T21:36:26.404Z,100.00
2022-12-06T21:38:55.250Z,100.00
2022-12-06T21:41:23.616Z,100.00
2022-12-06T21:43:51.696Z,100.00
2022-12-06T21:46:21.839Z,100.00
2022-12-06T21:48:53.016Z,100.00
2022-12-06T21:51:21.348Z,100.00
2022-12-06T21:53:49.703Z,100.00
2022-12-06T21:56:19.481Z,100.00
2022-12-06T21:58:48.378Z,100.00
2022-12-06T22:01:18.774Z,100.00
2022-12-06T22:03:48.731Z,100.00
2022-12-06T22:06:18.364Z,100.00
2022-12-06T22:08:47.884Z,100.00
2022-12-06T22:11:21.155Z,100.00
2022-12-06T22:13:49.814Z,100.00
2022-12-06T22:16:19.234Z,100.00
2022-12-06T22:18:47.736Z,100.00
2022-12-06T22:21:19.304Z,100.00
2022-12-06T22:23:47.571Z,100.00
2022-12-06T22:26:18.216Z,100.00
2022-12-06T22:28:47.066Z,100.00
2022-12-06T22:31:16.557Z,100.00
2022-12-06T22:33:44.845Z,100.00
2022-12-06T22:36:14.448Z,100.00
2022-12-06T22:38:44.369Z,100.00
2022-12-06T22:41:12.484Z,100.00
2022-12-06T22:43:40.533Z,100.00
2022-12-06T22:46:10.924Z,100.00
2022-12-06T22:48:39.621Z,100.00
2022-12-06T22:51:09.455Z,100.00
2022-12-06T22:53:37.611Z,100.00
2022-12-06T22:56:07.397Z,100.00
2022-12-06T22:58:35.850Z,100.00
2022-12-06T23:01:15.950Z,100.00
2022-12-06T23:03:45.604Z,100.00
2022-12-06T23:06:14.401Z,100.00
2022-12-06T23:08:43.320Z,100.00
2022-12-06T23:11:15.512Z,100.00
2022-12-06T23:13:44.527Z,100.00
2022-12-06T23:16:14.305Z,100.00
2022-12-06T23:18:42.993Z,100.00
2022-12-06T23:21:13.526Z,100.00
2022-12-06T23:23:43.335Z,100.00
2022-12-06T23:26:14.501Z,100.00
2022-12-06T23:28:42.365Z,100.00
2022-12-06T23:31:13.951Z,100.00
2022-12-06T23:33:43.611Z,100.00
2022-12-06T23:36:14.234Z,100.00
2022-12-06T23:38:42.757Z,100.00
2022-12-06T23:41:14.649Z,100.00
2022-12-06T23:43:43.293Z,100.00
2022-12-06T23:46:17.751Z,100.00
2022-12-06T23:48:49.179Z,100.00
2022-12-06T23:51:19.055Z,100.00
2022-12-06T23:53:51.578Z,100.00
2022-12-06T23:56:23.094Z,100.00
2022-12-06T23:58:52.209Z,100.00
